Anajatuba, Brazil
Current Conditions -  °F | °C
As of 3:00 PM on Wednesday 26 Nov 2014 (Local Time) from SBSL Reporting Station
Scattered Clouds Scattered Clouds  
Wind Chill: 31°   Ceiling: Unl
Heat Index: 34°   Visibility: 6mi
Dew Point: 21°   Wind: 23mph
Humidity: 55%   Direction: 60°ENE
Pressure: 29.74"   Gusts: NA
Location:  3.26°S, 44.62°W
Report Text: SBSL 261800Z 06020KT 9999 SCT020 31/21 Q1007
Loading
Personal Weather Stations






























Interactive Weather Map New forecast layout! Learn more

10-Day Weather Forecast

Advertisements
Track Severe Weather on mobile